Kyokuho Maru No.15 — JI3715 — position and weather

sailwx.info

Track history (hours):
 
Tides and Currents Weather Stations Pressure Air Temp Water Temp Dewpoint Dewpoint Depression Visibility Wind Speed Wind Dir Waves Ship Positions

Kyokuho Maru No.15

Last reported at 2016-Dec-04 03:31 UTC. Time now 2016-Dec-04 04:01 UTC.
Position N 34°31' E 135°24'.

Length 63 m; draft 3.2 m.

Type: Tanker. MMSI: 431301714.

Date/timePositionNaut miles runAvg speedWind from/ knotsBaromVisibWave heightAir tempDewpointWater temp
2016-Dec-04 03:31N 34°31' E 135°24'4 4.4
2016-Dec-04 02:33N 34°34' E 135°21'9 9.1
2016-Dec-04 01:33N 34°42' E 135°16'0 0.0
2016-Dec-04 00:33N 34°42' E 135°16'0 0.0
2016-Dec-03 23:33N 34°42' E 135°16'5 4.9
2016-Dec-03 22:33N 34°37' E 135°16'0 0.0
2016-Dec-03 21:25N 34°37' E 135°16'0 0.0
2016-Dec-03 20:31N 34°37' E 135°16'0 0.0
2016-Dec-03 19:31N 34°37' E 135°16'0 0.0
2016-Dec-03 18:31N 34°37' E 135°16'0 0.0
2016-Dec-03 17:31N 34°37' E 135°16'0 0.0
2016-Dec-03 16:31N 34°37' E 135°16'0 0.0
2016-Dec-03 15:31N 34°37' E 135°16'0 0.0
2016-Dec-03 14:31N 34°37' E 135°16'5 5.0
2016-Dec-03 13:33N 34°36' E 135°11'  
2016-Nov-25 08:15N 34°37' E 134°57'912.6
2016-Nov-25 07:33N 34°36' E 135°08'1212.2
2016-Nov-25 06:33N 34°40' E 135°22'3 2.5
2016-Nov-25 05:33N 34°40' E 135°25'0 0.0
2016-Nov-25 04:33N 34°40' E 135°25'1 1.2
2016-Nov-25 03:33N 34°40' E 135°24'3 2.6
2016-Nov-25 02:33N 34°38' E 135°21'7 6.6
2016-Nov-25 01:32N 34°32' E 135°25'0 0.0
2016-Nov-24 23:33N 34°32' E 135°25'0 0.4
2016-Nov-24 22:32N 34°33' E 135°25'2 1.9
2016-Nov-24 21:25N 34°31' E 135°24'0 0.0
2016-Nov-24 20:31N 34°31' E 135°24'0 0.0
2016-Nov-24 05:25N 34°31' E 135°24'0 0.1
2016-Nov-24 04:29N 34°31' E 135°24'9 9.8
2016-Nov-24 03:33N 34°34' E 135°14'  
Track history (hours):
 
Tides and Currents Weather Stations Pressure Air Temp Water Temp Dewpoint Dewpoint Depression Visibility Wind Speed Wind Dir Waves Ship Positions

Kyokuho Maru No.15

Last reported at 2016-Dec-04 03:31 UTC. Time now 2016-Dec-04 04:01 UTC.
Position N 34°31' E 135°24'.

Length 63 m; draft 3.2 m.

Type: Tanker. MMSI: 431301714.

Date/timePositionNaut miles runAvg speedWind from/ knotsBaromVisibWave heightAir tempDewpointWater temp
2016-Dec-04 03:31N 34°31' E 135°24'4 4.4
2016-Dec-04 02:33N 34°34' E 135°21'9 9.1
2016-Dec-04 01:33N 34°42' E 135°16'0 0.0
2016-Dec-04 00:33N 34°42' E 135°16'0 0.0
2016-Dec-03 23:33N 34°42' E 135°16'5 4.9
2016-Dec-03 22:33N 34°37' E 135°16'0 0.0
2016-Dec-03 21:25N 34°37' E 135°16'0 0.0
2016-Dec-03 20:31N 34°37' E 135°16'0 0.0
2016-Dec-03 19:31N 34°37' E 135°16'0 0.0
2016-Dec-03 18:31N 34°37' E 135°16'0 0.0
2016-Dec-03 17:31N 34°37' E 135°16'0 0.0
2016-Dec-03 16:31N 34°37' E 135°16'0 0.0
2016-Dec-03 15:31N 34°37' E 135°16'0 0.0
2016-Dec-03 14:31N 34°37' E 135°16'5 5.0
2016-Dec-03 13:33N 34°36' E 135°11'  
2016-Nov-25 08:15N 34°37' E 134°57'912.6
2016-Nov-25 07:33N 34°36' E 135°08'1212.2
2016-Nov-25 06:33N 34°40' E 135°22'3 2.5
2016-Nov-25 05:33N 34°40' E 135°25'0 0.0
2016-Nov-25 04:33N 34°40' E 135°25'1 1.2
2016-Nov-25 03:33N 34°40' E 135°24'3 2.6
2016-Nov-25 02:33N 34°38' E 135°21'7 6.6
2016-Nov-25 01:32N 34°32' E 135°25'0 0.0
2016-Nov-24 23:33N 34°32' E 135°25'0 0.4
2016-Nov-24 22:32N 34°33' E 135°25'2 1.9
2016-Nov-24 21:25N 34°31' E 135°24'0 0.0
2016-Nov-24 20:31N 34°31' E 135°24'0 0.0
2016-Nov-24 05:25N 34°31' E 135°24'0 0.1
2016-Nov-24 04:29N 34°31' E 135°24'9 9.8
2016-Nov-24 03:33N 34°34' E 135°14'  

Dump ship's entire track history